Princess, Kentucky
Current Conditions -  °F | °C
As of 2:15 PM on Friday 28 Nov 2014 (Local Time) from KDWU Reporting Station
Clear Clear  
Wind Chill: 31°   Ceiling: Unl
Heat Index: 36°   Visibility: 10mi
Dew Point: 18°   Wind: 6mph
Humidity: 48%   Direction: 240°WSW
Pressure: 30.29"   Gusts: NA
Location:  38.4744°N, 82.6532°W
Report Text: KDWU 281915Z AUTO 24005KT 10SM CLR 02/M08 A3029 RMK AO1
Loading
Personal Weather Stations






























Interactive Weather Map New forecast layout! Learn more

10-Day Weather Forecast

Advertisements
Track Severe Weather on mobile